Time;durP1;ratioP1;P1;durP2;ratioP2;P2;SDS_P1;SDS_P2;PMS_P1;PMS_P2;Temp;Humidity;BMP_temperature;BMP_pressure;BME280_temperature;BME280_humidity;BME280_pressure;Samples;Min_cycle;Max_cycle;Signal;HPM_P1;HPM_P2
2022/04/11 00:00:31;;;;;;;16.02;11.05;;;3.80;99.90;;;;;;5092704;28;20788;-54
2022/04/11 00:02:57;;;;;;;15.02;10.38;;;3.70;99.90;;;;;;5074227;28;20401;-55
2022/04/11 00:05:23;;;;;;;15.88;10.07;;;3.70;99.90;;;;;;5092216;28;20412;-55
2022/04/11 00:07:49;;;;;;;15.37;9.67;;;3.70;99.90;;;;;;5087598;28;20485;-55
2022/04/11 00:10:15;;;;;;;17.50;10.30;;;3.70;99.90;;;;;;5092067;28;20378;-54
2022/04/11 00:12:41;;;;;;;14.82;10.20;;;3.70;99.90;;;;;;5092793;28;20384;-55
2022/04/11 00:15:07;;;;;;;15.93;9.88;;;3.70;99.90;;;;;;5092421;28;20797;-55
2022/04/11 00:17:34;;;;;;;14.70;9.38;;;3.60;99.90;;;;;;5092108;28;20370;-54
2022/04/11 00:20:00;;;;;;;15.80;9.80;;;3.70;99.90;;;;;;5092163;28;20485;-54
2022/04/11 00:22:26;;;;;;;14.10;9.50;;;3.60;99.90;;;;;;5091992;28;20485;-54
2022/04/11 00:24:52;;;;;;;17.80;9.50;;;3.60;99.90;;;;;;5092360;28;20871;-55
2022/04/11 00:27:18;;;;;;;13.75;9.70;;;3.50;99.90;;;;;;5091382;28;20390;-55
2022/04/11 00:29:43;;;;;;;16.77;9.43;;;3.50;99.90;;;;;;5092010;28;20388;-54
2022/04/11 00:32:09;;;;;;;15.97;10.07;;;3.40;99.90;;;;;;5090582;28;20473;-54
2022/04/11 00:34:35;;;;;;;16.80;10.00;;;3.50;99.90;;;;;;5092250;28;20382;-54
2022/04/11 00:37:00;;;;;;;13.70;9.32;;;3.40;99.90;;;;;;5087887;28;20439;-54
2022/04/11 00:39:26;;;;;;;14.40;9.53;;;3.50;99.90;;;;;;5091197;28;20374;-54
2022/04/11 00:41:51;;;;;;;15.80;9.40;;;3.30;99.90;;;;;;5092163;28;20382;-54
2022/04/11 00:44:17;;;;;;;13.10;9.50;;;3.30;99.90;;;;;;5091050;28;20398;-54
2022/04/11 00:46:43;;;;;;;16.43;9.33;;;3.20;99.90;;;;;;5091889;28;20429;-54
2022/04/11 00:49:09;;;;;;;16.92;10.32;;;3.30;99.90;;;;;;5092363;28;20371;-54
2022/04/11 00:51:34;;;;;;;14.75;10.10;;;3.30;99.90;;;;;;5091969;28;20398;-55
2022/04/11 00:54:01;;;;;;;17.90;10.10;;;3.30;99.90;;;;;;5091718;28;20374;-54
2022/04/11 00:56:29;;;;;;;15.00;10.13;;;3.20;99.90;;;;;;5089212;28;20404;-54
2022/04/11 00:58:56;;;;;;;14.48;9.70;;;3.10;99.90;;;;;;5092150;28;20499;-54
2022/04/11 01:01:22;;;;;;;15.52;9.70;;;3.10;99.90;;;;;;5091005;28;20864;-54
2022/04/11 01:03:47;;;;;;;19.33;11.02;;;3.10;99.90;;;;;;5091216;28;20432;-54
2022/04/11 01:06:13;;;;;;;16.93;10.30;;;3.00;99.90;;;;;;5091032;28;20751;-54
2022/04/11 01:08:39;;;;;;;17.00;11.27;;;2.90;99.90;;;;;;5091443;28;20549;-55
2022/04/11 01:11:06;;;;;;;15.18;10.43;;;2.90;99.90;;;;;;5091680;28;20457;-54
2022/04/11 01:13:32;;;;;;;16.05;10.30;;;2.90;99.90;;;;;;5072653;28;21173;-54
2022/04/11 01:15:59;;;;;;;18.80;11.25;;;2.80;99.90;;;;;;5088047;28;20445;-54
2022/04/11 01:18:25;;;;;;;16.95;11.25;;;2.90;99.90;;;;;;5090660;28;20426;-54
2022/04/11 01:20:51;;;;;;;17.05;11.73;;;2.90;99.90;;;;;;5083765;28;20494;-54
2022/04/11 01:23:17;;;;;;;17.40;11.30;;;2.90;99.90;;;;;;5086358;28;20402;-56
2022/04/11 01:25:48;;;;;;;16.42;11.35;;;2.90;99.90;;;;;;5086466;28;20410;-54
2022/04/11 01:28:13;;;;;;;16.85;10.27;;;2.90;99.90;;;;;;5089106;28;20390;-54
2022/04/11 01:30:39;;;;;;;16.77;10.30;;;2.90;99.90;;;;;;5089476;28;20395;-55
2022/04/11 01:33:16;;;;;;;18.10;11.50;;;1.20;99.90;;;;;;5086104;28;20390;-54
2022/04/11 01:35:42;;;;;;;15.40;10.93;;;2.90;99.90;;;;;;5084558;28;20391;-54
2022/04/11 01:38:09;;;;;;;16.48;10.35;;;2.80;99.90;;;;;;5090364;28;20385;-54
2022/04/11 01:40:37;;;;;;;17.05;11.13;;;3.80;99.90;;;;;;5072040;28;20783;-54
2022/04/11 01:43:02;;;;;;;20.48;11.23;;;3.00;99.90;;;;;;5088868;28;20382;-54
2022/04/11 01:45:28;;;;;;;16.60;10.80;;;3.10;99.90;;;;;;5085414;28;20408;-54
2022/04/11 01:47:54;;;;;;;17.00;11.18;;;3.10;99.90;;;;;;5089002;28;20465;-54
2022/04/11 01:50:19;;;;;;;17.13;11.07;;;3.20;99.90;;;;;;5088613;28;20843;-54
2022/04/11 01:52:45;;;;;;;16.73;11.40;;;3.20;99.90;;;;;;5087271;28;20724;-54
2022/04/11 01:55:11;;;;;;;15.73;10.00;;;3.10;99.90;;;;;;5089897;28;20386;-54
2022/04/11 01:57:36;;;;;;;16.93;9.60;;;3.10;99.90;;;;;;5088476;28;20378;-54
2022/04/11 02:00:03;;;;;;;15.33;9.67;;;3.00;99.90;;;;;;5069161;28;20394;-54
2022/04/11 02:02:28;;;;;;;13.70;9.00;;;3.10;99.90;;;;;;5087263;28;20405;-54
2022/04/11 02:04:54;;;;;;;14.00;9.50;;;3.00;99.90;;;;;;5088233;28;20434;-54
2022/04/11 02:07:20;;;;;;;18.40;9.90;;;3.00;99.90;;;;;;5086978;28;20421;-54
2022/04/11 02:09:45;;;;;;;16.67;9.00;;;3.00;99.90;;;;;;5088646;28;20871;-54
2022/04/11 02:12:11;;;;;;;15.87;9.30;;;3.10;99.90;;;;;;5070123;28;20386;-54
2022/04/11 02:14:37;;;;;;;16.60;9.90;;;3.10;99.90;;;;;;5088590;28;20397;-54
2022/04/11 02:17:03;;;;;;;14.93;9.02;;;3.20;99.90;;;;;;5088016;28;20385;-54
2022/04/11 02:19:28;;;;;;;14.73;9.20;;;3.20;99.90;;;;;;5087767;28;20473;-54
2022/04/11 02:21:54;;;;;;;17.57;9.73;;;3.10;99.90;;;;;;5071411;28;20772;-54
2022/04/11 02:24:19;;;;;;;16.42;9.80;;;3.20;99.90;;;;;;5068465;28;20839;-54
2022/04/11 02:26:45;;;;;;;13.07;8.80;;;3.20;99.90;;;;;;5069216;28;20753;-54
2022/04/11 02:29:11;;;;;;;15.77;8.95;;;3.20;99.90;;;;;;5068824;28;20895;-54
2022/04/11 02:31:36;;;;;;;16.30;9.43;;;3.20;99.90;;;;;;5068703;28;20410;-54
2022/04/11 02:34:02;;;;;;;13.43;9.10;;;3.30;99.90;;;;;;5069063;28;20387;-54
2022/04/11 02:36:28;;;;;;;15.93;9.50;;;3.40;99.90;;;;;;5068250;28;20380;-54
2022/04/11 02:38:53;;;;;;;18.37;9.70;;;3.50;99.90;;;;;;5068810;28;20372;-54
2022/04/11 02:41:19;;;;;;;17.10;9.17;;;3.50;99.90;;;;;;5068248;28;20514;-54
2022/04/11 02:43:45;;;;;;;15.82;8.98;;;3.60;99.90;;;;;;5068968;28;20849;-54
2022/04/11 02:46:10;;;;;;;17.73;9.00;;;3.50;99.90;;;;;;5069134;28;20376;-53
2022/04/11 02:48:38;;;;;;;14.18;9.30;;;3.50;99.90;;;;;;5068702;28;20376;-53
2022/04/11 02:51:04;;;;;;;15.80;9.55;;;3.40;99.90;;;;;;5069215;28;20384;-53
2022/04/11 02:53:29;;;;;;;14.77;8.60;;;3.40;99.90;;;;;;5068023;28;20380;-53
2022/04/11 02:55:55;;;;;;;13.95;8.60;;;3.40;99.90;;;;;;5069046;28;20391;-53
2022/04/11 02:58:20;;;;;;;15.20;8.70;;;3.30;99.90;;;;;;5068129;28;20837;-54
2022/04/11 03:00:46;;;;;;;16.20;9.30;;;3.30;99.90;;;;;;5069183;28;20803;-54
2022/04/11 03:03:12;;;;;;;14.00;8.88;;;4.10;99.90;;;;;;5068386;28;20805;-53
2022/04/11 03:05:38;;;;;;;18.33;8.93;;;3.30;99.90;;;;;;5069008;28;20480;-53
2022/04/11 03:08:04;;;;;;;14.82;9.57;;;3.40;99.90;;;;;;5068977;28;20464;-54
2022/04/11 03:10:30;;;;;;;14.53;9.47;;;3.40;99.90;;;;;;5068373;28;20698;-54
2022/04/11 03:12:55;;;;;;;16.30;9.60;;;3.40;99.90;;;;;;5068934;28;20445;-55
2022/04/11 03:15:21;;;;;;;16.40;9.90;;;3.40;99.90;;;;;;5068740;28;20820;-53
2022/04/11 03:17:46;;;;;;;15.30;9.80;;;3.40;99.90;;;;;;5072980;28;20876;-53
2022/04/11 03:20:12;;;;;;;15.00;9.80;;;3.40;99.90;;;;;;5072345;28;20756;-53
2022/04/11 03:22:38;;;;;;;20.05;9.45;;;3.50;99.90;;;;;;5073105;28;20732;-53
2022/04/11 03:25:04;;;;;;;16.80;9.83;;;3.40;99.90;;;;;;5072703;28;20795;-53
2022/04/11 03:27:30;;;;;;;18.50;10.45;;;3.40;99.90;;;;;;5072191;28;20433;-54
2022/04/11 03:29:55;;;;;;;18.97;9.20;;;3.50;99.90;;;;;;5073164;28;20413;-54
2022/04/11 03:32:21;;;;;;;14.35;8.43;;;3.40;99.90;;;;;;5067237;28;20498;-53
2022/04/11 03:34:47;;;;;;;16.23;8.85;;;3.40;99.90;;;;;;5071742;28;20482;-54
2022/04/11 03:37:12;;;;;;;14.67;9.00;;;3.40;99.90;;;;;;5071213;28;20470;-53
2022/04/11 03:39:38;;;;;;;15.73;8.25;;;3.50;99.90;;;;;;5071324;28;20419;-54
2022/04/11 03:42:04;;;;;;;16.10;8.73;;;3.50;99.90;;;;;;5050776;28;20831;-54
2022/04/11 03:44:30;;;;;;;15.52;8.98;;;3.50;99.90;;;;;;5071516;28;20407;-54
2022/04/11 03:46:56;;;;;;;13.90;7.67;;;3.30;99.90;;;;;;5070352;28;20440;-54
2022/04/11 03:49:21;;;;;;;12.70;7.43;;;3.40;99.90;;;;;;5068667;28;20415;-53
2022/04/11 03:51:47;;;;;;;15.40;8.73;;;3.40;99.90;;;;;;5071876;28;20876;-54
2022/04/11 03:54:12;;;;;;;12.63;8.10;;;3.60;99.90;;;;;;5051149;28;20427;-53
2022/04/11 03:56:38;;;;;;;14.57;8.18;;;3.40;99.90;;;;;;5069573;28;20437;-53
2022/04/11 03:59:04;;;;;;;12.33;7.80;;;3.40;99.90;;;;;;5072506;28;20393;-54
2022/04/11 04:01:30;;;;;;;13.73;8.60;;;3.40;99.90;;;;;;5068865;28;20387;-53
2022/04/11 04:03:56;;;;;;;14.17;8.23;;;3.50;99.90;;;;;;5072379;28;20399;-53
2022/04/11 04:06:21;;;;;;;13.50;7.97;;;3.50;99.90;;;;;;5072059;28;20379;-53
2022/04/11 04:08:47;;;;;;;13.20;8.00;;;3.50;99.90;;;;;;5072248;28;20380;-54
2022/04/11 04:11:13;;;;;;;14.00;8.30;;;3.50;99.90;;;;;;5072309;28;20776;-53
2022/04/11 04:13:38;;;;;;;14.90;9.02;;;3.40;99.90;;;;;;5066772;28;20465;-54
2022/04/11 04:16:05;;;;;;;14.23;8.13;;;3.40;99.90;;;;;;5072397;28;20380;-53
2022/04/11 04:18:30;;;;;;;13.45;7.20;;;3.40;99.90;;;;;;5062363;28;20388;-53
2022/04/11 04:20:56;;;;;;;11.82;7.50;;;3.40;99.90;;;;;;5072106;28;20412;-54
2022/04/11 04:23:22;;;;;;;14.07;7.77;;;3.40;99.90;;;;;;5071442;28;20388;-53
2022/04/11 04:25:47;;;;;;;13.00;7.75;;;3.30;99.90;;;;;;5071863;28;20408;-53
2022/04/11 04:28:17;;;;;;;13.00;7.90;;;3.30;99.90;;;;;;5071159;28;20392;-53
2022/04/11 04:30:43;;;;;;;14.27;7.88;;;3.10;99.90;;;;;;5072235;28;20388;-54
2022/04/11 04:33:09;;;;;;;13.35;7.90;;;3.20;99.90;;;;;;5071589;28;20423;-54
2022/04/11 04:35:35;;;;;;;15.77;8.40;;;3.20;99.90;;;;;;5068721;28;20895;-54
2022/04/11 04:38:01;;;;;;;13.90;8.23;;;3.10;99.90;;;;;;5067537;28;20757;-54
2022/04/11 04:40:26;;;;;;;13.82;7.88;;;3.10;99.90;;;;;;5066448;28;20881;-53
2022/04/11 04:42:52;;;;;;;12.70;7.80;;;3.00;99.90;;;;;;5064703;28;20423;-53
2022/04/11 04:45:18;;;;;;;12.85;7.70;;;3.00;99.90;;;;;;5052889;28;20408;-53
2022/04/11 04:47:44;;;;;;;13.15;8.20;;;3.00;99.90;;;;;;5064005;28;20421;-54
2022/04/11 04:50:09;;;;;;;13.95;8.20;;;3.10;99.90;;;;;;5067135;28;20423;-54
2022/04/11 04:52:37;;;;;;;14.57;8.20;;;3.20;99.90;;;;;;5071129;28;20376;-54
2022/04/11 04:55:03;;;;;;;12.15;7.97;;;3.20;99.90;;;;;;5068865;28;20395;-54
2022/04/11 04:57:29;;;;;;;14.50;8.55;;;3.10;99.90;;;;;;5066911;28;20395;-55
2022/04/11 04:59:55;;;;;;;16.63;8.18;;;3.10;99.90;;;;;;5064612;28;20428;-53
2022/04/11 05:02:21;;;;;;;16.80;8.52;;;3.10;99.90;;;;;;5068022;28;20388;-54
2022/04/11 05:04:47;;;;;;;16.98;9.40;;;3.00;99.90;;;;;;5066545;28;20932;-54
2022/04/11 05:07:12;;;;;;;13.27;7.90;;;3.00;99.90;;;;;;5066997;28;20419;-53
2022/04/11 05:09:38;;;;;;;16.10;8.70;;;3.00;99.90;;;;;;5061242;28;20390;-54
2022/04/11 05:12:04;;;;;;;22.00;9.18;;;3.00;99.90;;;;;;5070887;28;20462;-54
2022/04/11 05:14:30;;;;;;;14.40;8.68;;;3.00;99.90;;;;;;5069105;28;20391;-55
2022/04/11 05:16:55;;;;;;;16.42;8.40;;;3.00;99.90;;;;;;5069795;28;20810;-54
2022/04/11 05:19:21;;;;;;;13.33;8.00;;;3.10;99.90;;;;;;5070276;28;20435;-53
2022/04/11 05:21:47;;;;;;;13.93;7.95;;;3.20;99.90;;;;;;5071627;28;20755;-54
2022/04/11 05:24:14;;;;;;;14.93;8.10;;;3.40;99.90;;;;;;5070923;28;20427;-54
2022/04/11 05:26:39;;;;;;;13.20;8.10;;;3.60;99.90;;;;;;5069139;28;20399;-54
2022/04/11 05:29:05;;;;;;;13.15;8.20;;;3.60;99.90;;;;;;5076302;28;20379;-54
2022/04/11 05:31:31;;;;;;;13.60;7.43;;;3.60;99.90;;;;;;5079417;28;20382;-54
2022/04/11 05:33:56;;;;;;;14.93;7.43;;;3.90;99.90;;;;;;5075709;28;20427;-54
2022/04/11 05:36:22;;;;;;;13.57;7.90;;;4.20;99.90;;;;;;5077243;28;20380;-54
2022/04/11 05:38:48;;;;;;;13.67;7.30;;;4.50;99.90;;;;;;5086965;28;20383;-54
2022/04/11 05:41:14;;;;;;;17.50;7.30;;;4.70;99.90;;;;;;5079492;28;20412;-52
2022/04/11 05:43:41;;;;;;;9.88;6.05;;;5.10;99.90;;;;;;5090281;28;20378;-53
2022/04/11 05:46:06;;;;;;;9.90;6.43;;;5.80;99.90;;;;;;5083030;28;20504;-52
2022/04/11 05:48:35;;;;;;;12.40;7.00;;;6.50;99.90;;;;;;5089133;28;20586;-52
2022/04/11 05:51:01;;;;;;;15.43;6.57;;;7.00;99.90;;;;;;5089950;28;20396;-53
2022/04/11 05:53:27;;;;;;;13.90;6.30;;;7.40;99.90;;;;;;5089390;28;20417;-52
2022/04/11 05:55:53;;;;;;;14.13;6.78;;;7.80;99.90;;;;;;5073720;28;20918;-53
2022/04/11 05:58:18;;;;;;;14.75;6.57;;;8.10;99.90;;;;;;5085844;28;20781;-53
2022/04/11 06:00:44;;;;;;;11.90;6.10;;;8.50;99.90;;;;;;5082920;28;20780;-53
2022/04/11 06:03:10;;;;;;;11.30;6.13;;;9.00;99.90;;;;;;5069950;28;20861;-54
2022/04/11 06:05:39;;;;;;;11.43;6.70;;;9.80;99.90;;;;;;5064022;28;20425;-52
2022/04/11 06:08:05;;;;;;;12.35;7.10;;;11.00;99.90;;;;;;5071879;28;20452;-55
2022/04/11 06:10:31;;;;;;;13.90;9.60;;;12.20;99.90;;;;;;5077226;28;20390;-54
2022/04/11 06:12:57;;;;;;;17.57;10.37;;;13.60;99.90;;;;;;5089819;28;20378;-55
2022/04/11 06:15:23;;;;;;;14.02;11.73;;;14.10;99.90;;;;;;5070805;28;20877;-55
2022/04/11 06:17:48;;;;;;;14.40;8.10;;;14.80;1.00;;;;;;5072707;28;20400;-55
2022/04/11 06:20:14;;;;;;;12.77;7.55;;;15.30;1.00;;;;;;5076630;28;20416;-55
2022/04/11 06:22:40;;;;;;;13.65;8.88;;;15.20;99.90;;;;;;5067138;28;20392;-56
2022/04/11 06:25:09;;;;;;;12.13;10.60;;;15.80;1.00;;;;;;5068924;28;20488;-53
2022/04/11 06:27:36;;;;;;;11.88;8.60;;;17.10;1.00;;;;;;5068664;28;20415;-53
2022/04/11 06:30:03;;;;;;;15.03;12.10;;;17.70;1.00;;;;;;5064391;28;20448;-54
2022/04/11 06:32:30;;;;;;;10.35;7.13;;;17.90;1.00;;;;;;5063100;28;20394;-54
2022/04/11 06:34:57;;;;;;;12.73;9.20;;;18.00;1.00;;;;;;5069321;28;20387;-53
2022/04/11 06:37:24;;;;;;;11.00;7.22;;;17.80;1.00;;;;;;5050863;28;20828;-53
2022/04/11 06:39:50;;;;;;;10.07;7.03;;;17.80;1.00;;;;;;5069200;28;20555;-54
2022/04/11 06:42:16;;;;;;;10.03;7.30;;;17.60;1.00;;;;;;5062930;28;20913;-53
2022/04/11 06:44:42;;;;;;;11.65;7.65;;;17.70;1.00;;;;;;5069527;28;20498;-54
2022/04/11 06:47:08;;;;;;;10.18;7.55;;;18.30;1.00;;;;;;5069519;28;20830;-54
2022/04/11 06:49:35;;;;;;;13.40;8.02;;;18.80;1.00;;;;;;5068528;28;20491;-53
2022/04/11 06:52:01;;;;;;;12.90;7.83;;;18.90;1.00;;;;;;5051393;28;20875;-53
2022/04/11 06:54:27;;;;;;;10.93;8.35;;;19.00;1.00;;;;;;5068476;28;20414;-53
2022/04/11 06:56:53;;;;;;;12.20;7.90;;;19.20;1.00;;;;;;5069602;28;20388;-54
2022/04/11 06:59:18;;;;;;;10.80;7.20;;;18.60;1.00;;;;;;5068731;28;20834;-54
2022/04/11 07:01:44;;;;;;;11.02;7.55;;;18.40;1.00;;;;;;5069149;28;20378;-54
2022/04/11 07:04:10;;;;;;;13.20;8.10;;;18.50;1.00;;;;;;5051886;28;20404;-54
2022/04/11 07:06:35;;;;;;;16.20;11.20;;;18.60;1.00;;;;;;5068410;28;20986;-54
2022/04/11 07:09:01;;;;;;;12.70;9.10;;;18.70;1.00;;;;;;5068991;28;20372;-54
2022/04/11 07:11:30;;;;;;;12.48;7.82;;;18.80;1.00;;;;;;5068781;28;20799;-53
2022/04/11 07:13:56;;;;;;;14.52;8.05;;;18.20;1.00;;;;;;5069283;28;20398;-53
2022/04/11 07:16:23;;;;;;;11.48;7.30;;;18.70;1.00;;;;;;5068375;28;20379;-54
2022/04/11 07:18:48;;;;;;;12.55;8.25;;;19.60;99.90;;;;;;5069379;28;20442;-53
2022/04/11 07:21:14;;;;;;;12.25;7.38;;;20.00;99.90;;;;;;5081667;28;20401;-55
2022/04/11 07:23:39;;;;;;;10.17;6.77;;;19.30;99.90;;;;;;5088731;28;20867;-53
2022/04/11 07:26:05;;;;;;;14.13;6.80;;;18.70;99.90;;;;;;5089430;28;20793;-53
2022/04/11 07:28:31;;;;;;;13.33;9.77;;;19.30;99.90;;;;;;5088746;28;20918;-53
2022/04/11 07:30:56;;;;;;;14.13;8.85;;;19.20;99.90;;;;;;5089398;28;20470;-53
2022/04/11 07:33:22;;;;;;;12.05;10.30;;;19.40;99.90;;;;;;5088735;28;20377;-53
2022/04/11 07:35:48;;;;;;;13.73;12.43;;;19.30;99.90;;;;;;5089205;28;20464;-53
2022/04/11 07:38:14;;;;;;;12.60;10.87;;;18.10;99.90;;;;;;5088977;28;20393;-54
2022/04/11 07:40:39;;;;;;;14.40;7.90;;;18.00;99.90;;;;;;5088461;28;20879;-53
2022/04/11 07:43:05;;;;;;;12.32;8.35;;;18.50;99.90;;;;;;5071282;28;20397;-54
2022/04/11 07:45:31;;;;;;;11.67;9.63;;;18.50;99.90;;;;;;5088402;28;20431;-54
2022/04/11 07:47:56;;;;;;;11.18;6.80;;;18.20;99.90;;;;;;5071021;28;20393;-54
2022/04/11 07:50:22;;;;;;;9.80;6.45;;;18.50;99.90;;;;;;5088629;28;20385;-53
2022/04/11 07:52:48;;;;;;;11.70;6.97;;;18.50;99.90;;;;;;5088956;28;20867;-54
2022/04/11 07:55:15;;;;;;;11.23;6.07;;;18.20;99.90;;;;;;5082400;28;20382;-54
2022/04/11 07:57:41;;;;;;;11.00;6.70;;;18.40;99.90;;;;;;5081331;28;20789;-54
2022/04/11 08:00:08;;;;;;;10.50;9.18;;;18.60;99.90;;;;;;5088837;28;20378;-55
2022/04/11 08:02:34;;;;;;;12.55;11.38;;;17.70;99.90;;;;;;5090802;28;20435;-54
2022/04/11 08:05:02;;;;;;;10.10;5.95;;;17.40;99.90;;;;;;5092936;28;21278;-54
2022/04/11 08:07:30;;;;;;;11.68;5.60;;;17.60;99.90;;;;;;5091932;28;20374;-54
2022/04/11 08:09:55;;;;;;;9.50;5.63;;;17.40;99.90;;;;;;5092657;28;20377;-54
2022/04/11 08:12:21;;;;;;;9.77;5.60;;;17.70;99.90;;;;;;5091715;28;20390;-53
2022/04/11 08:14:47;;;;;;;11.60;7.73;;;18.60;99.90;;;;;;5092755;28;20461;-53
2022/04/11 08:17:13;;;;;;;9.85;6.30;;;19.80;99.90;;;;;;5092639;28;20377;-54
2022/04/11 08:19:38;;;;;;;9.93;6.50;;;20.30;99.90;;;;;;5091737;28;20382;-53
2022/04/11 08:22:05;;;;;;;10.33;7.80;;;19.80;99.90;;;;;;5091926;28;20405;-54
2022/04/11 08:24:30;;;;;;;9.63;5.03;;;19.50;99.90;;;;;;5091549;28;20413;-55
2022/04/11 08:26:58;;;;;;;10.00;5.10;;;19.60;99.90;;;;;;5092520;28;20728;-53
2022/04/11 08:29:24;;;;;;;10.10;5.60;;;19.20;99.90;;;;;;5091776;28;20469;-53
2022/04/11 08:31:51;;;;;;;10.07;6.67;;;;;;;;;;5092208;28;20405;-53
2022/04/11 08:34:17;;;;;;;11.57;10.48;;;;;;;;;;5074233;28;20436;-56
2022/04/11 08:36:44;;;;;;;12.35;11.05;;;;;;;;;;5091012;28;20420;-54
2022/04/11 08:39:10;;;;;;;9.35;5.30;;;22.30;99.90;;;;;;5073877;28;20378;-55
2022/04/11 08:41:37;;;;;;;10.20;6.93;;;22.00;99.90;;;;;;5091470;28;20382;-53
2022/04/11 08:44:07;;;;;;;12.32;11.02;;;;;;;;;;5092086;28;20378;-55
2022/04/11 08:46:34;;;;;;;9.70;6.00;;;20.90;99.90;;;;;;5091360;28;20405;-56
2022/04/11 08:49:04;;;;;;;9.50;5.60;;;21.60;99.90;;;;;;5091766;28;20366;-55
2022/04/11 08:51:32;;;;;;;8.13;5.20;;;21.30;99.90;;;;;;5091575;28;20389;-55
2022/04/11 08:54:01;;;;;;;9.90;5.50;;;;;;;;;;5091531;28;20382;-56
2022/04/11 08:56:28;;;;;;;10.85;5.97;;;21.50;99.90;;;;;;5091054;28;20428;-56
2022/04/11 08:58:55;;;;;;;9.95;5.40;;;22.00;99.90;;;;;;5091831;28;20423;-54
2022/04/11 09:01:21;;;;;;;8.50;5.70;;;22.70;99.90;;;;;;5091314;28;20378;-54
2022/04/11 09:03:47;;;;;;;9.45;5.70;;;22.90;99.90;;;;;;5091907;28;20434;-54
2022/04/11 09:06:15;;;;;;;9.25;5.03;;;21.70;99.90;;;;;;5091445;28;20414;-54
2022/04/11 09:08:41;;;;;;;9.45;5.00;;;22.20;99.90;;;;;;5090723;28;20378;-54
2022/04/11 09:11:08;;;;;;;9.52;5.03;;;23.00;99.90;;;;;;5091793;28;20386;-54
2022/04/11 09:13:53;;;;;;;10.40;6.40;;;;;;;;;;5054864;28;20386;-54
2022/04/11 09:16:19;;;;;;;8.30;5.30;;;23.70;1.00;;;;;;5090896;28;20367;-54
2022/04/11 09:18:52;;;;;;;8.97;5.43;;;23.70;1.00;;;;;;5091258;28;20477;-54
2022/04/11 09:21:19;;;;;;;9.00;5.23;;;;;;;;;;5090959;28;20437;-54
2022/04/11 09:23:46;;;;;;;9.75;5.85;;;;;;;;;;5091151;28;20373;-54
2022/04/11 09:26:23;;;;;;;8.95;5.30;;;;;;;;;;5091102;28;20402;-55
2022/04/11 09:29:05;;;;;;;8.70;5.63;;;;;;;;;;5085373;28;20460;-54
2022/04/11 09:31:31;;;;;;;9.13;5.37;;;;;;;;;;5090699;28;20366;-54
2022/04/11 09:33:57;;;;;;;9.38;5.55;;;24.70;67.70;;;;;;5090938;28;20381;-55
2022/04/11 09:36:24;;;;;;;9.63;5.87;;;;;;;;;;5090481;28;20460;-54
2022/04/11 09:39:00;;;;;;;9.00;5.28;;;24.90;99.90;;;;;;5090811;28;20843;-54
2022/04/11 09:41:34;;;;;;;7.93;4.60;;;24.90;99.90;;;;;;5090640;28;20405;-54
2022/04/11 09:44:23;;;;;;;10.10;5.10;;;;;;;;;;5091318;28;20374;-54
2022/04/11 09:46:59;;;;;;;10.30;5.18;;;25.00;34.50;;;;;;5091002;28;20489;-54
2022/04/11 09:49:26;;;;;;;11.75;10.55;;;24.10;1.00;;;;;;5090101;28;20447;-54
2022/04/11 09:52:12;;;;;;;7.10;4.10;;;24.40;1.00;;;;;;5090987;28;20407;-54
2022/04/11 09:54:43;;;;;;;10.00;4.85;;;24.10;1.00;;;;;;5089437;28;20397;-54
2022/04/11 09:57:10;;;;;;;7.45;4.30;;;24.30;1.00;;;;;;5090455;28;20739;-54
2022/04/11 09:59:39;;;;;;;8.50;3.95;;;23.70;99.90;;;;;;5090124;28;20392;-54
2022/04/11 10:02:06;;;;;;;7.70;4.07;;;23.60;99.90;;;;;;5090810;28;20420;-54
2022/04/11 10:04:32;;;;;;;8.00;4.40;;;23.50;99.90;;;;;;5089648;28;20474;-54
2022/04/11 10:06:58;;;;;;;7.55;3.90;;;23.70;99.90;;;;;;5090470;28;20382;-54
2022/04/11 10:09:24;;;;;;;7.90;3.88;;;24.30;1.00;;;;;;5089505;28;20411;-55
2022/04/11 10:11:52;;;;;;;6.90;3.57;;;24.30;99.90;;;;;;5090175;28;20785;-54
2022/04/11 10:14:23;;;;;;;10.05;8.10;;;23.60;99.90;;;;;;5090418;28;20390;-55
2022/04/11 10:16:52;;;;;;;9.98;8.98;;;22.10;99.90;;;;;;5090656;28;20377;-56
2022/04/11 10:19:26;;;;;;;9.05;8.15;;;21.80;99.90;;;;;;5090124;28;20713;-56
2022/04/11 10:21:55;;;;;;;9.45;8.50;;;22.30;99.90;;;;;;5089991;28;20409;-54
2022/04/11 10:24:38;;;;;;;9.93;8.33;;;21.00;99.90;;;;;;5089167;28;20410;-54
2022/04/11 10:27:19;;;;;;;9.50;8.50;;;20.50;99.90;;;;;;5084819;28;20378;-54
2022/04/11 10:29:46;;;;;;;8.85;7.90;;;21.10;99.90;;;;;;5089461;28;20406;-55
2022/04/11 10:32:11;;;;;;;8.60;7.60;;;22.00;99.90;;;;;;5090190;28;20382;-55
2022/04/11 10:34:54;;;;;;;8.20;7.40;;;22.40;99.90;;;;;;5089398;28;20507;-55
2022/04/11 10:37:24;;;;;;;9.30;7.63;;;21.90;99.90;;;;;;5089978;28;20413;-54
2022/04/11 10:39:51;;;;;;;8.83;7.93;;;20.50;99.90;;;;;;5089501;28;20461;-54
2022/04/11 10:42:20;;;;;;;7.90;6.40;;;19.60;99.90;;;;;;5089750;28;20420;-54
2022/04/11 10:44:54;;;;;;;9.73;8.73;;;19.40;99.90;;;;;;5089477;28;20405;-54
2022/04/11 10:47:33;;;;;;;10.43;9.32;;;19.10;99.90;;;;;;5089703;28;20413;-55
2022/04/11 10:50:01;;;;;;;9.80;8.90;;;19.20;99.90;;;;;;5089922;28;20421;-54
2022/04/11 10:52:31;;;;;;;8.45;7.63;;;19.40;99.90;;;;;;5088982;28;20485;-54
2022/04/11 10:55:08;;;;;;;9.27;6.25;;;19.00;99.90;;;;;;5089764;28;20386;-54
2022/04/11 10:57:39;;;;;;;8.07;6.60;;;18.20;99.90;;;;;;5088835;28;20378;-54
2022/04/11 11:00:17;;;;;;;7.20;4.88;;;17.80;99.90;;;;;;5089710;28;20918;-54
2022/04/11 11:02:59;;;;;;;7.60;3.20;;;17.90;99.90;;;;;;5089298;28;20461;-54
2022/04/11 11:05:39;;;;;;;7.40;3.10;;;17.50;99.90;;;;;;5089196;28;20504;-54
2022/04/11 11:08:14;;;;;;;6.90;2.90;;;17.80;99.90;;;;;;5086762;28;20378;-54
2022/04/11 11:10:46;;;;;;;6.45;2.83;;;17.90;99.90;;;;;;5070663;28;21005;-54
2022/04/11 11:13:30;;;;;;;8.13;3.15;;;18.10;99.90;;;;;;5089021;28;21357;-55
2022/04/11 11:16:00;;;;;;;6.35;2.95;;;18.20;99.90;;;;;;5089500;28;20400;-55
2022/04/11 11:18:27;;;;;;;6.13;2.90;;;17.90;99.90;;;;;;5088837;28;20843;-54
2022/04/11 11:20:55;;;;;;;6.38;2.70;;;17.80;99.90;;;;;;5089084;28;20410;-55
2022/04/11 11:23:27;;;;;;;7.80;2.95;;;18.20;99.90;;;;;;5070708;28;20386;-54
2022/04/11 11:25:54;;;;;;;6.57;2.80;;;18.20;99.90;;;;;;5087378;28;20418;-55
2022/04/11 11:28:21;;;;;;;8.40;3.20;;;17.90;99.90;;;;;;5084622;28;21143;-54
2022/04/11 11:30:47;;;;;;;9.88;3.30;;;17.70;99.90;;;;;;5084503;28;20374;-54
2022/04/11 11:33:16;;;;;;;7.20;2.83;;;18.20;99.90;;;;;;5082260;28;20725;-54
2022/04/11 11:35:46;;;;;;;7.68;3.65;;;17.80;99.90;;;;;;5086905;28;21035;-54
2022/04/11 11:38:13;;;;;;;7.80;6.10;;;17.00;99.90;;;;;;5088609;28;20386;-54
2022/04/11 11:40:43;;;;;;;9.00;7.40;;;17.10;99.90;;;;;;5085267;28;20729;-53
2022/04/11 11:43:13;;;;;;;10.15;7.85;;;17.00;99.90;;;;;;5087274;28;20378;-54
2022/04/11 11:45:41;;;;;;;7.57;6.50;;;17.10;99.90;;;;;;5087043;28;21017;-55
2022/04/11 11:48:40;;;;;;;6.60;3.70;;;17.20;99.90;;;;;;5085982;28;21251;-54
2022/04/11 11:51:06;;;;;;;7.28;3.08;;;17.30;99.90;;;;;;5053863;28;20496;-54
2022/04/11 11:53:51;;;;;;;6.75;3.00;;;17.30;99.90;;;;;;5089397;28;20393;-54
2022/04/11 11:56:16;;;;;;;6.70;2.70;;;17.60;99.90;;;;;;5089945;28;20398;-54
2022/04/11 11:58:42;;;;;;;6.18;2.90;;;17.40;99.90;;;;;;5087119;28;20445;-54
2022/04/11 12:01:13;;;;;;;7.20;2.50;;;17.40;99.90;;;;;;5071505;28;20409;-54
2022/04/11 12:06:28;;;;;;;9.00;3.00;;;17.60;99.90;;;;;;5090701;28;20477;-54
2022/04/11 12:08:56;;;;;;;7.10;3.20;;;17.60;99.90;;;;;;5072188;28;20485;-54
2022/04/11 12:11:24;;;;;;;8.60;3.10;;;17.60;99.90;;;;;;5087499;28;20439;-54
2022/04/11 12:13:57;;;;;;;6.80;3.10;;;17.50;99.90;;;;;;5092250;28;20386;-54
2022/04/11 12:16:22;;;;;;;7.22;2.83;;;17.30;99.90;;;;;;5092807;28;20389;-54
2022/04/11 12:18:50;;;;;;;7.18;3.00;;;17.30;99.90;;;;;;5092589;28;20484;-55
2022/04/11 12:21:16;;;;;;;6.07;2.70;;;17.40;99.90;;;;;;5092354;28;20414;-54
2022/04/11 12:23:47;;;;;;;6.57;2.97;;;17.60;99.90;;;;;;5089231;28;20405;-56
2022/04/11 12:26:23;;;;;;;7.60;2.90;;;17.80;99.90;;;;;;5081150;28;20409;-54
2022/04/11 12:28:48;;;;;;;6.32;2.92;;;17.00;99.90;;;;;;5066409;28;20397;-54
2022/04/11 12:31:17;;;;;;;7.13;3.15;;;16.90;99.90;;;;;;5085951;28;20390;-54
2022/04/11 12:33:49;;;;;;;6.95;2.90;;;17.00;99.90;;;;;;5085395;28;21090;-54
2022/04/11 12:36:26;;;;;;;7.10;3.00;;;17.00;99.90;;;;;;5085721;28;20407;-54
2022/04/11 12:38:58;;;;;;;7.97;3.20;;;17.30;99.90;;;;;;5091385;28;20455;-54
2022/04/11 12:41:29;;;;;;;7.97;3.40;;;17.20;99.90;;;;;;5089846;28;20370;-54
2022/04/11 12:44:08;;;;;;;8.40;3.37;;;17.30;99.90;;;;;;5082735;28;20497;-54
2022/04/11 12:46:40;;;;;;;6.72;2.92;;;17.20;99.90;;;;;;5079939;28;20405;-54
2022/04/11 12:49:07;;;;;;;8.07;3.55;;;17.20;99.90;;;;;;5070987;28;20438;-54
2022/04/11 12:51:33;;;;;;;9.85;2.80;;;17.40;99.90;;;;;;5086818;28;20729;-54